Time;durP1;ratioP1;P1;durP2;ratioP2;P2;SDS_P1;SDS_P2;PMS_P1;PMS_P2;Temp;Humidity;BMP_temperature;BMP_pressure;BME280_temperature;BME280_humidity;BME280_pressure;Samples;Min_cycle;Max_cycle;Signal;HPM_P1;HPM_P2
2022/10/09 00:01:39;;;;;;;6.77;4.60;;;12.80;99.90;;;;;;10412966;28;20312;-79
2022/10/09 00:06:46;;;;;;;4.00;3.70;;;12.80;99.90;;;;;;10396433;28;20197;-80
2022/10/09 00:11:48;;;;;;;7.23;4.30;;;12.70;99.90;;;;;;10386638;28;20242;-79
2022/10/09 00:16:50;;;;;;;4.47;3.60;;;12.70;99.90;;;;;;10355136;28;20202;-79
2022/10/09 00:21:53;;;;;;;4.53;4.07;;;12.70;99.90;;;;;;10372220;28;20245;-79
2022/10/09 00:26:55;;;;;;;4.43;4.00;;;12.70;99.90;;;;;;10342453;28;20201;-80
2022/10/09 00:31:57;;;;;;;4.67;3.97;;;12.70;99.90;;;;;;10328574;28;20217;-79
2022/10/09 00:37:01;;;;;;;4.53;4.00;;;12.60;99.90;;;;;;10360065;28;20198;-80
2022/10/09 00:42:04;;;;;;;4.90;4.40;;;12.60;99.90;;;;;;10413203;28;20692;-79
2022/10/09 00:47:10;;;;;;;4.30;3.90;;;12.60;99.90;;;;;;10412056;28;20273;-80
2022/10/09 00:52:14;;;;;;;4.80;4.33;;;12.50;99.90;;;;;;10412239;28;20678;-79
2022/10/09 00:57:16;;;;;;;5.23;4.73;;;12.40;99.90;;;;;;10395435;28;20240;-81
2022/10/09 01:02:18;;;;;;;6.30;4.67;;;12.40;99.90;;;;;;10406303;28;20348;-80
2022/10/09 01:07:38;;;;;;;5.10;4.57;;;12.40;99.90;;;;;;10411444;28;20204;-80
2022/10/09 01:12:51;;;;;;;4.97;4.00;;;12.40;99.90;;;;;;10413966;28;20225;-80
2022/10/09 01:17:59;;;;;;;8.63;4.60;;;12.30;99.90;;;;;;10419627;28;20241;-80
2022/10/09 01:23:17;;;;;;;4.57;4.23;;;12.30;99.90;;;;;;10420321;28;20214;-80
2022/10/09 01:28:23;;;;;;;5.63;4.40;;;12.30;99.90;;;;;;10417492;28;20182;-79
2022/10/09 01:33:25;;;;;;;4.50;4.10;;;12.20;99.90;;;;;;10418312;28;20210;-80
2022/10/09 01:38:29;;;;;;;4.00;3.70;;;12.20;99.90;;;;;;10418709;28;20218;-80
2022/10/09 01:43:32;;;;;;;4.20;3.80;;;12.20;99.90;;;;;;10417162;28;20668;-81
2022/10/09 01:48:35;;;;;;;4.73;4.37;;;12.20;99.90;;;;;;10417693;28;20269;-79
2022/10/09 01:53:39;;;;;;;5.63;4.40;;;12.20;99.90;;;;;;10400708;28;20245;-81
2022/10/09 01:58:48;;;;;;;7.77;4.20;;;12.10;99.90;;;;;;10416667;28;20255;-79
2022/10/09 02:03:52;;;;;;;4.30;3.90;;;12.10;99.90;;;;;;10416910;28;20650;-79
2022/10/09 02:08:56;;;;;;;4.77;4.33;;;12.10;99.90;;;;;;10416445;28;20194;-79
2022/10/09 02:14:00;;;;;;;4.60;4.03;;;12.00;99.90;;;;;;10399330;28;20210;-79
2022/10/09 02:19:04;;;;;;;7.70;4.33;;;12.00;99.90;;;;;;10417750;28;20198;-79
2022/10/09 02:24:08;;;;;;;5.10;4.70;;;11.90;99.90;;;;;;10415124;28;20241;-80
2022/10/09 02:29:13;;;;;;;6.67;4.63;;;12.00;99.90;;;;;;10415437;28;20190;-79
2022/10/09 02:34:18;;;;;;;5.27;4.80;;;11.90;99.90;;;;;;10399168;28;20213;-80
2022/10/09 02:39:20;;;;;;;5.60;5.10;;;11.90;99.90;;;;;;10398555;28;20318;-79
2022/10/09 02:44:24;;;;;;;6.50;5.87;;;11.80;99.90;;;;;;10398787;28;20240;-79
2022/10/09 02:49:26;;;;;;;7.63;6.87;;;11.80;99.90;;;;;;10416519;28;20596;-80
2022/10/09 02:54:28;;;;;;;5.63;5.13;;;11.80;99.90;;;;;;10417876;28;20221;-79
2022/10/09 02:59:31;;;;;;;6.90;6.00;;;11.80;99.90;;;;;;10415535;28;20345;-79
2022/10/09 03:04:33;;;;;;;7.57;6.30;;;11.70;99.90;;;;;;10414138;28;20664;-80
2022/10/09 03:09:36;;;;;;;6.93;5.80;;;11.70;99.90;;;;;;10418941;28;20272;-80
2022/10/09 03:14:39;;;;;;;6.07;5.57;;;11.70;99.90;;;;;;10415161;28;20313;-80
2022/10/09 03:19:41;;;;;;;5.90;5.40;;;11.70;99.90;;;;;;10417876;28;20217;-80
2022/10/09 03:24:43;;;;;;;6.57;4.30;;;11.60;99.90;;;;;;10416924;28;20214;-79
2022/10/09 03:29:47;;;;;;;5.27;4.87;;;11.60;99.90;;;;;;10416583;28;20673;-79
2022/10/09 03:34:49;;;;;;;6.77;5.00;;;11.50;99.90;;;;;;10414359;28;20605;-79
2022/10/09 03:39:51;;;;;;;9.33;5.30;;;11.50;99.90;;;;;;10413347;28;20592;-79
2022/10/09 03:44:54;;;;;;;7.10;4.33;;;11.40;99.90;;;;;;10414293;28;20225;-80
2022/10/09 03:49:56;;;;;;;7.37;5.27;;;11.40;99.90;;;;;;10397038;28;20225;-79
2022/10/09 03:54:58;;;;;;;5.07;4.57;;;11.40;99.90;;;;;;10396316;28;20217;-79
2022/10/09 04:00:01;;;;;;;5.10;4.20;;;11.40;99.90;;;;;;10395439;28;20202;-79
2022/10/09 04:05:07;;;;;;;4.90;4.50;;;11.40;99.90;;;;;;10413510;28;20244;-79
2022/10/09 04:10:10;;;;;;;6.13;4.60;;;11.30;99.90;;;;;;10413830;28;20183;-80
2022/10/09 04:15:13;;;;;;;5.07;4.57;;;11.30;99.90;;;;;;10411931;28;20225;-79
2022/10/09 04:20:15;;;;;;;5.73;5.17;;;11.30;99.90;;;;;;10413033;28;20206;-80
2022/10/09 04:25:17;;;;;;;4.80;4.43;;;11.30;99.90;;;;;;10413305;28;20233;-79
2022/10/09 04:30:21;;;;;;;4.80;4.40;;;11.30;99.90;;;;;;10412541;28;20238;-80
2022/10/09 04:35:23;;;;;;;6.37;5.53;;;11.30;99.90;;;;;;10412750;28;20190;-79
2022/10/09 04:40:25;;;;;;;6.47;5.40;;;11.30;99.90;;;;;;10411364;28;20214;-79
2022/10/09 04:45:28;;;;;;;5.73;4.50;;;11.20;99.90;;;;;;10411631;28;20190;-80
2022/10/09 04:50:30;;;;;;;6.30;5.83;;;11.20;99.90;;;;;;10417559;28;20196;-80
2022/10/09 04:55:32;;;;;;;5.90;4.63;;;11.20;99.90;;;;;;10419498;28;20218;-80
2022/10/09 05:00:40;;;;;;;5.80;5.40;;;11.20;99.90;;;;;;10411164;28;20702;-80
2022/10/09 05:05:42;;;;;;;4.77;4.40;;;11.20;99.90;;;;;;10374692;28;20706;-80
2022/10/09 05:10:44;;;;;;;6.80;5.77;;;11.10;99.90;;;;;;10339094;28;20233;-80
2022/10/09 05:15:47;;;;;;;10.80;5.93;;;11.10;99.90;;;;;;10337250;28;20198;-79
2022/10/09 05:20:49;;;;;;;7.20;5.97;;;11.00;99.90;;;;;;10337973;28;20222;-80
2022/10/09 05:25:55;;;;;;;7.53;6.23;;;11.00;99.90;;;;;;10376877;28;20293;-80
2022/10/09 05:31:04;;;;;;;7.17;6.47;;;11.00;99.90;;;;;;10418239;28;20209;-80
2022/10/09 05:36:07;;;;;;;6.10;5.50;;;10.90;99.90;;;;;;10395913;28;20201;-80
2022/10/09 05:41:12;;;;;;;4.60;4.20;;;10.90;99.90;;;;;;10409240;28;20238;-80
2022/10/09 05:46:17;;;;;;;5.63;5.23;;;10.90;99.90;;;;;;10420066;28;20602;-81
2022/10/09 05:51:21;;;;;;;5.97;5.20;;;10.90;99.90;;;;;;10421591;28;20229;-80
2022/10/09 05:56:25;;;;;;;6.40;5.50;;;10.90;99.90;;;;;;10420924;28;20280;-80
2022/10/09 06:01:33;;;;;;;6.60;5.60;;;10.90;99.90;;;;;;10366347;28;20241;-80
2022/10/09 06:06:37;;;;;;;5.83;5.37;;;10.90;99.90;;;;;;10400832;28;20212;-79
2022/10/09 06:11:42;;;;;;;6.13;5.70;;;10.90;99.90;;;;;;10421569;28;20210;-80
2022/10/09 06:16:46;;;;;;;7.00;6.47;;;10.90;99.90;;;;;;10414799;28;20213;-80
2022/10/09 06:21:51;;;;;;;6.10;5.70;;;10.90;99.90;;;;;;10423113;28;20220;-80
2022/10/09 06:26:53;;;;;;;6.87;6.13;;;10.90;99.90;;;;;;10405321;28;20195;-80
2022/10/09 06:31:58;;;;;;;8.20;7.10;;;10.90;99.90;;;;;;10421528;28;20273;-79
2022/10/09 06:37:00;;;;;;;14.90;11.33;;;10.90;99.90;;;;;;10422614;28;20252;-80
2022/10/09 06:42:03;;;;;;;145.97;63.70;;;10.90;99.90;;;;;;10390694;28;20219;-80
2022/10/09 06:47:15;;;;;;;42.13;25.87;;;11.00;99.90;;;;;;10374223;28;20229;-79
2022/10/09 06:52:17;;;;;;;11.00;9.93;;;11.00;99.90;;;;;;10370813;28;20227;-80
2022/10/09 06:57:19;;;;;;;9.43;8.47;;;11.00;99.90;;;;;;10367385;28;20203;-80
2022/10/09 07:02:22;;;;;;;6.60;6.00;;;11.10;99.90;;;;;;10339316;28;20707;-80
2022/10/09 07:07:24;;;;;;;8.87;8.13;;;11.10;99.90;;;;;;10386185;28;20286;-80
2022/10/09 07:12:26;;;;;;;7.47;6.87;;;11.20;99.90;;;;;;10361895;28;20237;-80
2022/10/09 07:17:30;;;;;;;13.33;9.40;;;11.20;99.90;;;;;;10347212;28;20191;-80
2022/10/09 07:22:32;;;;;;;9.60;8.70;;;11.30;99.90;;;;;;10360292;28;20225;-81
2022/10/09 07:27:35;;;;;;;10.93;8.93;;;11.30;99.90;;;;;;10375445;28;20258;-80
2022/10/09 07:32:38;;;;;;;9.30;8.47;;;11.40;99.90;;;;;;10390478;28;20245;-79
2022/10/09 07:37:40;;;;;;;8.37;7.60;;;11.50;99.90;;;;;;10390881;28;20189;-80
2022/10/09 07:42:42;;;;;;;10.03;9.10;;;11.60;99.90;;;;;;10380199;28;20248;-80
2022/10/09 07:47:45;;;;;;;8.83;7.57;;;11.70;99.90;;;;;;10370876;28;20194;-80
2022/10/09 07:52:47;;;;;;;6.80;6.30;;;11.80;99.90;;;;;;10379543;28;20213;-80
2022/10/09 07:57:50;;;;;;;9.17;8.27;;;11.80;99.90;;;;;;10366992;28;20257;-79
2022/10/09 08:02:55;;;;;;;7.67;6.97;;;11.90;99.90;;;;;;10375810;28;20261;-80
2022/10/09 08:07:57;;;;;;;7.40;6.70;;;12.00;99.90;;;;;;10359967;28;20204;-80
2022/10/09 08:12:59;;;;;;;9.50;7.53;;;12.00;99.90;;;;;;10378057;28;20225;-80
2022/10/09 08:18:03;;;;;;;7.90;7.30;;;12.10;99.90;;;;;;10368625;28;20249;-80
2022/10/09 08:23:06;;;;;;;6.87;6.37;;;12.10;99.90;;;;;;10371096;28;20244;-80
2022/10/09 08:28:09;;;;;;;7.23;6.63;;;12.20;99.90;;;;;;10384529;28;20203;-80
2022/10/09 08:33:12;;;;;;;10.27;7.60;;;12.30;99.90;;;;;;10392631;28;20266;-80
2022/10/09 08:38:14;;;;;;;7.70;6.50;;;12.40;99.90;;;;;;10379483;28;20195;-80
2022/10/09 08:43:19;;;;;;;7.20;6.50;;;12.50;99.90;;;;;;10388275;28;20230;-79
2022/10/09 08:48:28;;;;;;;8.33;7.07;;;12.60;99.90;;;;;;10377313;28;20237;-80
2022/10/09 08:53:37;;;;;;;8.17;7.37;;;12.70;99.90;;;;;;10354999;28;20269;-81
2022/10/09 08:58:42;;;;;;;7.13;6.43;;;12.80;99.90;;;;;;10375728;28;20618;-81
2022/10/09 09:04:10;;;;;;;7.13;6.53;;;12.90;99.90;;;;;;10370661;28;20302;-81
2022/10/09 09:09:19;;;;;;;7.73;6.07;;;13.10;99.90;;;;;;10360772;28;20230;-80
2022/10/09 09:14:34;;;;;;;7.50;6.00;;;13.20;99.90;;;;;;10358022;28;20245;-80
2022/10/09 09:20:00;;;;;;;5.37;4.90;;;13.30;99.90;;;;;;10361708;28;20244;-81
2022/10/09 09:25:17;;;;;;;5.23;4.83;;;13.50;99.90;;;;;;10343959;28;20218;-79
2022/10/09 09:30:23;;;;;;;5.07;4.60;;;13.70;99.90;;;;;;10381867;28;20329;-80
2022/10/09 09:35:31;;;;;;;5.37;4.90;;;13.90;99.90;;;;;;10372936;28;20671;-80
2022/10/09 09:40:34;;;;;;;5.20;4.70;;;14.00;99.90;;;;;;10368957;28;20218;-80
2022/10/09 09:45:36;;;;;;;4.50;4.07;;;14.20;99.90;;;;;;10392815;28;20198;-80
2022/10/09 09:50:42;;;;;;;4.43;4.13;;;14.30;99.90;;;;;;10376096;28;20191;-79
2022/10/09 09:55:44;;;;;;;3.50;3.20;;;14.50;99.90;;;;;;10391974;28;20202;-80
2022/10/09 10:00:54;;;;;;;3.47;3.17;;;14.60;99.90;;;;;;10367427;28;20314;-81
2022/10/09 10:05:57;;;;;;;5.30;4.10;;;14.60;99.90;;;;;;10391240;28;20665;-81
2022/10/09 10:11:01;;;;;;;3.67;3.10;;;14.60;99.90;;;;;;10383338;28;20678;-80
2022/10/09 10:16:05;;;;;;;3.13;2.63;;;14.80;99.40;;;;;;10391218;28;20210;-80
2022/10/09 10:21:12;;;;;;;4.40;3.70;;;14.80;98.90;;;;;;10375843;28;20599;-79
2022/10/09 10:26:26;;;;;;;5.10;4.20;;;14.80;98.70;;;;;;10377160;28;20699;-80
2022/10/09 10:31:51;;;;;;;6.33;3.93;;;14.90;99.20;;;;;;10377609;28;20210;-81
2022/10/09 10:37:01;;;;;;;3.83;3.20;;;14.90;99.90;;;;;;10373584;28;20204;-81
2022/10/09 10:42:10;;;;;;;4.90;3.60;;;14.90;99.90;;;;;;10374885;28;20264;-81
2022/10/09 10:47:18;;;;;;;3.37;2.83;;;14.90;99.40;;;;;;10405403;28;20198;-81
2022/10/09 10:52:29;;;;;;;3.10;2.90;;;15.00;98.50;;;;;;10409363;28;20202;-81
2022/10/09 10:57:45;;;;;;;7.33;3.40;;;15.10;98.10;;;;;;10426877;28;20198;-80
2022/10/09 11:03:05;;;;;;;3.10;2.80;;;15.10;97.80;;;;;;10416771;28;20222;-79
2022/10/09 11:08:21;;;;;;;4.00;2.67;;;15.20;97.50;;;;;;10403856;28;20208;-81
2022/10/09 11:13:28;;;;;;;3.43;2.77;;;15.40;95.80;;;;;;10404146;28;20264;-80
2022/10/09 11:18:48;;;;;;;3.30;2.57;;;15.40;96.70;;;;;;10384513;28;20229;-80
2022/10/09 11:24:11;;;;;;;3.00;2.80;;;15.50;95.80;;;;;;10397668;28;20234;-80
2022/10/09 11:29:17;;;;;;;3.70;3.50;;;15.60;95.90;;;;;;10406134;28;20202;-80
2022/10/09 11:34:26;;;;;;;3.20;3.00;;;15.60;95.00;;;;;;10421412;28;20333;-80
2022/10/09 11:39:32;;;;;;;3.13;2.93;;;15.70;94.00;;;;;;10404780;28;20552;-80
2022/10/09 11:44:40;;;;;;;4.07;3.70;;;15.80;95.50;;;;;;10419109;28;20229;-79
2022/10/09 11:49:59;;;;;;;4.33;2.67;;;15.80;95.00;;;;;;10415896;28;20212;-80
2022/10/09 11:55:16;;;;;;;2.30;2.20;;;15.90;94.50;;;;;;10403544;28;20222;-79
2022/10/09 12:00:29;;;;;;;3.13;2.17;;;15.90;95.10;;;;;;10405098;28;20212;-79
2022/10/09 12:05:39;;;;;;;3.33;2.53;;;15.90;94.50;;;;;;10383583;28;20677;-79
2022/10/09 12:10:51;;;;;;;2.40;2.30;;;16.00;95.00;;;;;;10354729;28;20717;-79
2022/10/09 12:15:57;;;;;;;3.10;2.90;;;16.00;94.70;;;;;;10355016;28;20201;-79
2022/10/09 12:21:08;;;;;;;2.93;2.70;;;16.00;94.30;;;;;;10370451;28;20226;-80
2022/10/09 12:26:13;;;;;;;3.43;3.17;;;16.10;93.80;;;;;;10406372;28;20210;-79
2022/10/09 12:31:20;;;;;;;4.43;3.23;;;16.10;93.60;;;;;;10412175;28;20220;-79
2022/10/09 12:36:24;;;;;;;4.20;3.10;;;16.20;93.40;;;;;;10411984;28;20190;-80
2022/10/09 12:41:32;;;;;;;3.80;3.50;;;16.30;93.60;;;;;;10411438;28;20233;-79
2022/10/09 12:46:36;;;;;;;3.23;2.63;;;16.40;92.70;;;;;;10412187;28;20273;-79
2022/10/09 12:51:38;;;;;;;2.80;2.60;;;16.40;92.50;;;;;;10412102;28;20221;-79
2022/10/09 12:56:42;;;;;;;3.10;2.80;;;16.40;92.90;;;;;;10340493;28;20191;-80
2022/10/09 13:01:46;;;;;;;4.50;2.50;;;16.40;93.80;;;;;;10329196;28;20761;-80
2022/10/09 13:06:49;;;;;;;2.60;2.40;;;16.40;93.60;;;;;;10395196;28;20201;-80
2022/10/09 13:11:56;;;;;;;3.00;2.60;;;16.40;93.30;;;;;;10413930;28;20222;-79
2022/10/09 13:16:58;;;;;;;2.70;1.90;;;16.40;94.20;;;;;;10416315;28;20210;-80
2022/10/09 13:22:15;;;;;;;3.17;2.80;;;16.50;92.80;;;;;;10418547;28;20299;-80
2022/10/09 13:27:20;;;;;;;4.10;2.90;;;16.50;93.20;;;;;;10420170;28;20186;-79
2022/10/09 13:32:23;;;;;;;2.93;2.80;;;16.50;92.50;;;;;;10419083;28;20293;-80
2022/10/09 13:37:26;;;;;;;4.83;3.20;;;16.70;92.30;;;;;;10415205;28;20655;-79
2022/10/09 13:42:35;;;;;;;2.70;2.60;;;16.60;93.10;;;;;;10338463;28;20230;-79
2022/10/09 13:47:37;;;;;;;4.47;3.20;;;16.60;94.50;;;;;;10407626;28;20210;-80
2022/10/09 13:52:42;;;;;;;3.80;3.50;;;16.50;94.00;;;;;;10419225;28;20216;-80
2022/10/09 13:57:46;;;;;;;5.60;3.80;;;16.60;92.90;;;;;;10403683;28;20208;-80
2022/10/09 14:02:48;;;;;;;3.93;3.30;;;16.60;93.90;;;;;;10417765;28;20754;-80
2022/10/09 14:07:50;;;;;;;4.00;3.70;;;16.70;94.20;;;;;;10415000;28;20213;-81
2022/10/09 14:12:53;;;;;;;3.23;2.90;;;16.70;93.60;;;;;;10429136;28;20218;-79
2022/10/09 14:17:57;;;;;;;3.50;3.30;;;16.70;93.10;;;;;;10422141;28;20202;-79
2022/10/09 14:23:00;;;;;;;4.70;3.30;;;16.70;94.10;;;;;;10420992;28;20233;-79
2022/10/09 14:28:03;;;;;;;4.80;3.70;;;16.80;93.00;;;;;;10424345;28;20265;-79
2022/10/09 14:33:05;;;;;;;3.60;2.50;;;16.70;93.90;;;;;;10424098;28;20226;-79
2022/10/09 14:38:07;;;;;;;3.70;3.40;;;16.70;93.80;;;;;;10443092;28;20244;-79
2022/10/09 14:43:11;;;;;;;3.07;2.87;;;16.80;93.40;;;;;;10429821;28;20222;-79
2022/10/09 14:48:13;;;;;;;4.57;4.20;;;16.80;93.50;;;;;;10422483;28;20285;-79
2022/10/09 14:53:15;;;;;;;17.97;7.80;;;16.80;93.80;;;;;;10426555;28;20755;-79
2022/10/09 14:58:19;;;;;;;5.23;4.00;;;16.80;93.30;;;;;;10397553;28;20208;-79
2022/10/09 15:03:21;;;;;;;6.20;2.90;;;16.80;94.00;;;;;;10415813;28;20226;-79
2022/10/09 15:08:29;;;;;;;4.70;3.20;;;16.90;93.40;;;;;;10416737;28;20212;-79
2022/10/09 15:13:33;;;;;;;4.07;3.77;;;16.90;94.40;;;;;;10396164;28;20603;-78
2022/10/09 15:18:36;;;;;;;5.30;4.53;;;16.80;94.60;;;;;;10409543;28;20225;-79
2022/10/09 15:23:38;;;;;;;4.00;3.70;;;16.90;94.10;;;;;;10385453;28;20218;-78
2022/10/09 15:28:43;;;;;;;4.90;4.40;;;16.80;94.80;;;;;;10372142;28;20249;-79
2022/10/09 15:33:45;;;;;;;5.40;5.00;;;16.90;94.70;;;;;;10405831;28;20214;-79
2022/10/09 15:38:47;;;;;;;4.60;4.20;;;16.80;95.30;;;;;;10414490;28;20265;-79
2022/10/09 15:43:52;;;;;;;4.30;3.40;;;16.80;95.80;;;;;;10414381;28;20221;-79
2022/10/09 15:48:55;;;;;;;4.43;4.03;;;16.80;96.00;;;;;;10415365;28;20194;-79
2022/10/09 15:53:59;;;;;;;4.30;3.90;;;16.80;95.90;;;;;;10383115;28;20215;-79
2022/10/09 15:59:02;;;;;;;6.73;4.70;;;16.70;96.60;;;;;;10410401;28;20208;-80
2022/10/09 16:04:04;;;;;;;4.57;4.17;;;16.60;96.70;;;;;;10402067;28;20291;-80
2022/10/09 16:09:07;;;;;;;11.23;5.20;;;16.60;97.00;;;;;;10413230;28;20937;-79
2022/10/09 16:14:13;;;;;;;7.13;4.90;;;16.50;97.40;;;;;;10395715;28;20264;-80
2022/10/09 16:19:15;;;;;;;6.20;5.70;;;16.40;98.00;;;;;;10414049;28;20193;-80
2022/10/09 16:24:17;;;;;;;5.60;5.10;;;16.40;98.60;;;;;;10413782;28;20625;-80
2022/10/09 16:29:21;;;;;;;4.73;4.17;;;16.30;99.00;;;;;;10417846;28;20217;-80
2022/10/09 16:34:23;;;;;;;4.13;3.93;;;16.20;99.50;;;;;;10413272;28;20304;-80
2022/10/09 16:39:25;;;;;;;8.43;4.93;;;16.10;99.90;;;;;;10413051;28;20202;-80
2022/10/09 16:44:29;;;;;;;5.47;5.07;;;16.00;99.90;;;;;;10416953;28;20218;-79
2022/10/09 16:49:31;;;;;;;5.07;4.67;;;15.90;99.90;;;;;;10388277;28;20206;-80
2022/10/09 16:54:33;;;;;;;5.67;5.10;;;15.80;99.90;;;;;;10409042;28;20769;-79
2022/10/09 16:59:37;;;;;;;5.47;4.97;;;15.70;99.90;;;;;;10424768;28;20198;-80
2022/10/09 17:04:40;;;;;;;5.50;5.00;;;15.60;99.90;;;;;;10376820;28;20219;-79
2022/10/09 17:09:42;;;;;;;6.03;5.20;;;15.60;99.90;;;;;;10407424;28;20198;-78
2022/10/09 17:14:46;;;;;;;9.93;7.67;;;15.50;99.90;;;;;;10418481;28;20706;-80
2022/10/09 17:19:48;;;;;;;6.97;6.30;;;15.40;99.90;;;;;;10418513;28;20210;-80
2022/10/09 17:24:50;;;;;;;6.87;6.20;;;15.30;99.90;;;;;;10421486;28;20878;-79
2022/10/09 17:29:53;;;;;;;7.03;6.43;;;15.20;99.90;;;;;;10405865;28;20269;-80
2022/10/09 17:34:55;;;;;;;11.53;6.87;;;15.10;99.90;;;;;;10421923;28;20241;-79
2022/10/09 17:39:57;;;;;;;7.50;6.90;;;15.00;99.90;;;;;;10421098;28;20201;-79
2022/10/09 17:45:01;;;;;;;5.80;5.40;;;14.90;99.90;;;;;;10422228;28;20228;-79
2022/10/09 17:50:03;;;;;;;8.00;5.93;;;14.80;99.90;;;;;;10401865;28;20205;-79
2022/10/09 17:55:07;;;;;;;6.37;5.77;;;14.80;99.90;;;;;;10416025;28;20210;-78
2022/10/09 18:00:12;;;;;;;6.93;6.33;;;14.70;99.90;;;;;;10422555;28;20202;-79
2022/10/09 18:05:14;;;;;;;7.50;6.83;;;14.60;99.90;;;;;;10475738;22;20708;-80
2022/10/09 18:10:16;;;;;;;6.53;6.03;;;14.50;99.90;;;;;;10460816;28;20198;-79
2022/10/09 18:15:20;;;;;;;6.97;6.37;;;14.50;99.90;;;;;;10435875;28;20289;-80
2022/10/09 18:20:22;;;;;;;8.47;5.73;;;14.40;99.90;;;;;;10439961;28;20197;-79
2022/10/09 18:25:24;;;;;;;6.73;5.40;;;14.40;99.90;;;;;;10437907;28;20260;-79
2022/10/09 18:30:28;;;;;;;8.80;5.07;;;14.30;99.90;;;;;;10435335;28;20201;-79
2022/10/09 18:35:30;;;;;;;5.97;5.40;;;14.20;99.90;;;;;;10429435;28;20233;-77
2022/10/09 18:40:32;;;;;;;6.70;5.73;;;14.20;99.90;;;;;;10435386;28;20634;-77
2022/10/09 18:45:38;;;;;;;6.47;5.93;;;14.10;99.90;;;;;;10419690;28;20690;-77
2022/10/09 18:50:40;;;;;;;11.23;10.23;;;14.10;99.90;;;;;;10431580;28;20197;-79
2022/10/09 18:55:43;;;;;;;12.27;9.87;;;14.10;99.90;;;;;;10438312;28;20213;-80
2022/10/09 19:00:47;;;;;;;10.77;9.70;;;14.00;99.90;;;;;;10425148;28;20202;-79
2022/10/09 19:05:49;;;;;;;11.70;7.10;;;13.90;99.90;;;;;;10441121;28;20217;-80
2022/10/09 19:10:52;;;;;;;9.60;8.70;;;13.90;99.90;;;;;;10444169;28;20205;-79
2022/10/09 19:15:58;;;;;;;7.53;6.93;;;13.90;99.90;;;;;;10440406;28;20229;-79
2022/10/09 19:21:00;;;;;;;10.03;7.50;;;13.90;99.90;;;;;;10432845;28;20193;-80
2022/10/09 19:26:02;;;;;;;7.67;6.97;;;13.90;99.90;;;;;;10438991;28;20210;-77
2022/10/09 19:31:07;;;;;;;11.00;10.00;;;13.80;99.90;;;;;;10434192;28;20197;-78
2022/10/09 19:36:12;;;;;;;10.07;8.57;;;13.80;99.90;;;;;;10439458;28;20204;-77
2022/10/09 19:41:15;;;;;;;9.60;8.60;;;13.70;99.90;;;;;;10430712;28;20201;-77
2022/10/09 19:46:21;;;;;;;10.23;9.23;;;13.70;99.90;;;;;;10448116;28;20201;-77
2022/10/09 19:51:25;;;;;;;32.43;29.43;;;13.70;99.90;;;;;;10432653;28;20233;-78
2022/10/09 19:56:29;;;;;;;9.30;8.60;;;13.60;99.90;;;;;;10434436;28;20802;-77
2022/10/09 20:01:36;;;;;;;10.40;7.80;;;13.60;99.90;;;;;;10440263;28;20305;-77
2022/10/09 20:06:40;;;;;;;11.00;9.90;;;13.50;99.90;;;;;;10425397;28;20197;-80
2022/10/09 20:11:42;;;;;;;9.13;8.00;;;13.60;99.90;;;;;;10417185;28;20217;-77
2022/10/09 20:16:46;;;;;;;8.77;8.07;;;13.60;99.90;;;;;;10436906;28;20193;-79
2022/10/09 20:21:48;;;;;;;9.40;8.30;;;13.60;99.90;;;;;;10439217;28;20221;-78
2022/10/09 20:26:50;;;;;;;9.67;8.80;;;13.70;99.90;;;;;;10430007;28;20201;-76
2022/10/09 20:31:54;;;;;;;9.40;8.40;;;13.80;99.90;;;;;;10439750;28;20710;-78
2022/10/09 20:36:56;;;;;;;8.87;8.07;;;13.90;99.90;;;;;;10429913;28;20640;-79
2022/10/09 20:41:58;;;;;;;9.30;8.33;;;14.00;99.90;;;;;;10440619;28;20755;-79
2022/10/09 20:47:01;;;;;;;9.00;8.17;;;14.00;99.90;;;;;;10421534;28;20209;-79
2022/10/09 20:52:03;;;;;;;7.70;6.90;;;14.10;99.90;;;;;;10428883;28;20216;-78
2022/10/09 20:57:05;;;;;;;5.43;4.93;;;14.20;99.90;;;;;;10441719;28;20629;-78
2022/10/09 21:02:12;;;;;;;8.30;7.50;;;14.30;99.90;;;;;;10425811;28;20213;-78
2022/10/09 21:07:14;;;;;;;7.83;6.83;;;14.40;99.90;;;;;;10453315;28;20193;-76
2022/10/09 21:12:16;;;;;;;6.73;6.23;;;14.40;99.90;;;;;;10440177;28;20655;-77
2022/10/09 21:17:20;;;;;;;6.63;6.03;;;14.50;99.90;;;;;;10419557;28;20341;-77
2022/10/09 21:22:22;;;;;;;6.87;6.27;;;14.60;99.90;;;;;;10424121;28;20750;-78
2022/10/09 21:27:24;;;;;;;17.90;14.80;;;14.60;99.90;;;;;;10442123;28;20293;-78
2022/10/09 21:32:27;;;;;;;9.17;6.23;;;14.70;99.90;;;;;;10434442;28;20296;-78
2022/10/09 21:37:29;;;;;;;6.43;5.93;;;14.70;99.90;;;;;;10450373;28;20190;-77
2022/10/09 21:42:31;;;;;;;6.60;6.03;;;14.80;99.90;;;;;;10431663;28;20213;-78
2022/10/09 21:47:35;;;;;;;7.80;7.20;;;14.80;99.90;;;;;;10450630;28;20651;-77
2022/10/09 21:52:37;;;;;;;6.83;6.00;;;14.80;99.90;;;;;;10453671;28;20220;-79
2022/10/09 21:57:39;;;;;;;7.43;6.90;;;14.80;99.90;;;;;;10438212;28;20193;-77
2022/10/09 22:02:42;;;;;;;7.57;6.80;;;14.80;99.90;;;;;;10449845;28;20692;-77
2022/10/09 22:07:44;;;;;;;8.13;7.33;;;14.80;99.90;;;;;;10427857;28;20220;-79
2022/10/09 22:12:46;;;;;;;8.67;6.70;;;14.90;99.90;;;;;;10450362;28;20381;-77
2022/10/09 22:17:50;;;;;;;8.60;7.40;;;14.90;99.90;;;;;;10425752;28;20184;-78
2022/10/09 22:22:52;;;;;;;7.83;7.03;;;14.90;99.90;;;;;;10450909;28;20229;-77
2022/10/09 22:27:54;;;;;;;8.47;7.67;;;14.90;99.90;;;;;;10448335;28;20193;-77
2022/10/09 22:32:57;;;;;;;7.80;7.00;;;14.90;99.90;;;;;;10451277;28;20220;-78
2022/10/09 22:37:59;;;;;;;8.40;5.90;;;14.80;99.90;;;;;;10417589;28;20789;-77
2022/10/09 22:43:01;;;;;;;7.43;6.80;;;14.80;99.90;;;;;;10425281;28;20208;-77
2022/10/09 22:48:07;;;;;;;7.77;7.07;;;14.70;99.90;;;;;;10437161;28;20680;-79
2022/10/09 22:53:09;;;;;;;8.33;7.57;;;14.70;99.90;;;;;;10453402;28;20233;-79
2022/10/09 22:58:11;;;;;;;7.97;7.17;;;14.60;99.90;;;;;;10449620;28;20280;-79
2022/10/09 23:03:14;;;;;;;8.53;7.23;;;14.50;99.90;;;;;;10454256;28;20241;-79
2022/10/09 23:08:17;;;;;;;8.00;7.37;;;14.50;99.90;;;;;;10424346;28;20651;-78
2022/10/09 23:13:20;;;;;;;7.37;6.77;;;14.40;99.90;;;;;;10455586;28;20202;-79
2022/10/09 23:18:26;;;;;;;9.30;8.50;;;14.40;99.90;;;;;;10424738;28;20235;-79
2022/10/09 23:23:28;;;;;;;9.13;8.33;;;14.40;99.90;;;;;;10619933;22;20254;-80
2022/10/09 23:28:31;;;;;;;8.47;7.67;;;14.30;99.90;;;;;;10456772;28;20193;-80
2022/10/09 23:34:09;;;;;;;8.20;7.60;;;14.30;99.90;;;;;;10401958;28;20276;-78
2022/10/09 23:39:14;;;;;;;9.10;8.30;;;14.30;99.90;;;;;;10416796;28;20197;-80
2022/10/09 23:44:25;;;;;;;8.90;8.30;;;14.30;99.90;;;;;;10418212;28;20229;-81
2022/10/09 23:49:40;;;;;;;9.83;8.27;;;14.20;99.90;;;;;;10418598;28;20204;-79
2022/10/09 23:54:47;;;;;;;7.80;7.10;;;14.30;99.90;;;;;;10401594;28;20213;-78
2022/10/09 23:59:49;;;;;;;8.43;7.73;;;14.30;99.90;;;;;;10423171;28;20198;-80
